Stations météo

réclame
Mon MeteoGroup
Briancon, France (7593): Température de l'air & dewpoint: 12.01.2020 14:00:00 - 18.01.2020 14:00:00 (CET)Briancon, France (7593): Vitesse du vent: 12.01.2020 14:00:00 - 18.01.2020 14:00:00 (CET)Briancon, France (7593): Direction du vent: 12.01.2020 14:00:00 - 18.01.2020 14:00:00 (CET)Briancon, France (7593): Quantités de précipitations: 12.01.2020 14:00:00 - 18.01.2020 14:00:00 (CET)
Date & Time tt [°C] td [°C] ff [km/h] ff [knt] dd rr [mm]
18.01.2020 14:00:00 3,3 -10,7 5 3 ESE 0,0
18.01.2020 13:00:00 2,4 -9,9 6 4 SSE 0,0
18.01.2020 12:00:00 0,2 -9,3 10 5 E 0,0
18.01.2020 11:00:00 -1,2 -10,8 8 4 E 0,0
18.01.2020 10:00:00 -0,8 -11,6 16 8 E 0,0
18.01.2020 09:00:00 -1,6 -10,2 21 11 ENE 0,0
18.01.2020 08:00:00 -1,6 -10,2 15 8 ENE 0,0
18.01.2020 07:00:00 -0,9 -9,8 12 7 ENE 0,0
18.01.2020 06:00:00 1,2 -10,9 14 8 ENE 0,0
18.01.2020 05:00:00 0,6 -7,4 8 4 S 0,0
18.01.2020 04:00:00 0,7 -6,6 9 5 ENE 0,0
18.01.2020 03:00:00 1,8 -8,3 13 7 ENE 0,0
18.01.2020 02:00:00 2,1 -6,7 11 6 NE 0,0
18.01.2020 01:00:00 2,0 -5,4 11 6 ENE 0,0
18.01.2020 00:00:00 0,9 -2,3 5 3 SSW 0,0
17.01.2020 23:00:00 1,3 -1,6 7 4 E 0,0
17.01.2020 22:00:00 2,1 -1,2 11 6 ENE 0,0
17.01.2020 21:00:00 0,6 -0,6 3 2 ESE 0,2
17.01.2020 20:00:00 0,7 -0,5 7 4 ENE 2,2
17.01.2020 19:00:00 0,4 -0,5 12 7 NE 2,0
17.01.2020 18:00:00 0,5 -0,4 15 8 NE 1,8
17.01.2020 17:00:00 0,1 -1,0 9 5 ENE 0,6
17.01.2020 16:00:00 0,2 -3,2 3 2 SSW 0,0
17.01.2020 15:00:00 1,0 -4,1 3 2 WSW 0,0
17.01.2020 14:00:00 1,8 -6,3 2 1 WSW 0,0
17.01.2020 13:00:00 0,9 -6,9 2 1 NW 0,0
17.01.2020 12:00:00 -0,3 -6,7 3 2 SW 0,0
17.01.2020 11:00:00 -2,2 -7,7 0 0 N 0,0
17.01.2020 10:00:00 -3,9 -8,4 3 1 SSW 0,0
17.01.2020 09:00:00 -4,6 -8,4 3 2 S 0,0
17.01.2020 08:00:00 -5,1 -8,5 2 1 E 0,0
17.01.2020 07:00:00 -5,6 -9,3 4 2 E 0,0
17.01.2020 06:00:00 -5,9 -9,1 5 3 N 0,0
17.01.2020 05:00:00 -5,4 -8,8 2 1 SE 0,0
17.01.2020 04:00:00 -5,1 -8,5 2 1 SW 0,0
17.01.2020 03:00:00 -4,4 -8,3 0 0 N 0,0
17.01.2020 02:00:00 -4,7 -8,5 0 0 N 0,0
17.01.2020 01:00:00 -4,2 -8,1 3 1 SE 0,0
17.01.2020 00:00:00 -3,7 -8,4 3 1 E 0,0
16.01.2020 23:00:00 -3,2 -7,9 2 1 ENE 0,0
16.01.2020 22:00:00 -3,1 -7,8 2 1 ESE 0,0
16.01.2020 21:00:00 -2,5 -7,8 2 1 E 0,0
16.01.2020 20:00:00 -2,3 -7,8 3 1 SE 0,0
16.01.2020 19:00:00 -1,5 -7,0 2 1 W 0,0
16.01.2020 18:00:00 -1,0 -6,4 0 0 N 0,0
16.01.2020 17:00:00 0,7 -6,0 4 2 E 0,0
16.01.2020 16:00:00 5,2 -5,5 4 2 ESE 0,0
16.01.2020 15:00:00 7,2 -5,5 3 2 WSW 0,0
16.01.2020 14:00:00 6,0 -5,7 2 1 SE 0,0
16.01.2020 13:00:00 3,7 -5,8 2 1 ENE 0,0
16.01.2020 12:00:00 0,8 -6,5 0 0 N 0,0
16.01.2020 11:00:00 -3,1 -6,9 3 1 ENE 0,0
16.01.2020 10:00:00 -4,6 -7,9 2 1 SSW 0,0
16.01.2020 09:00:00 -4,6 -7,7 3 1 S 0,0
16.01.2020 08:00:00 -4,4 -7,3 6 3 ENE 0,0
16.01.2020 07:00:00 -4,8 -7,6 2 1 ESE 0,0
16.01.2020 06:00:00 -4,9 -7,7 3 1 WSW 0,0
16.01.2020 05:00:00 -4,6 -7,0 2 1 NE 0,0
16.01.2020 04:00:00 -4,3 -6,9 0 0 N 0,0
16.01.2020 03:00:00 -3,9 -6,5 0 0 N 0,0
16.01.2020 02:00:00 -3,5 -6,5 0 0 N 0,0
16.01.2020 01:00:00 -2,7 -5,8 0 0 N 0,0
16.01.2020 00:00:00 -2,1 -5,8 2 1 WNW 0,0
15.01.2020 23:00:00 -0,8 -4,5 3 2 NE 0,0
15.01.2020 22:00:00 -0,6 -5,0 0 0 N 0,0
15.01.2020 21:00:00 -0,2 -4,6 3 2 NE 0,0
15.01.2020 20:00:00 0,1 -4,5 5 3 ENE 0,0
15.01.2020 19:00:00 0,3 -4,2 3 2 NNE 0,0
15.01.2020 18:00:00 0,0 -4,6 4 2 NE 0,0
15.01.2020 17:00:00 0,6 -4,2 3 2 SSE 0,0
15.01.2020 16:00:00 2,4 -4,1 3 2 NE 0,0
15.01.2020 15:00:00 3,9 -4,8 6 3 ENE 0,0
15.01.2020 14:00:00 4,8 -5,0 4 2 NW 0,0
15.01.2020 13:00:00 4,2 -6,1 2 1 SSW 0,0
15.01.2020 12:00:00 0,9 -6,7 3 1 SE 0,0
15.01.2020 11:00:00 -4,3 -8,4 0 0 N 0,0
15.01.2020 10:00:00 -5,3 -8,4 0 0 N 0,0
15.01.2020 09:00:00 -5,8 -8,5 0 0 N 0,0
15.01.2020 08:00:00 -6,1 -9,0 0 0 N 0,0
15.01.2020 07:00:00 -5,8 -9,2 2 1 NNW 0,0
15.01.2020 06:00:00 -5,4 -8,6 2 1 NNE 0,0
15.01.2020 05:00:00 -5,2 -8,1 0 0 N 0,0
15.01.2020 04:00:00 -5,1 -8,5 2 1 NNE 0,0
15.01.2020 03:00:00 -4,7 -8,3 2 1 ESE 0,0
15.01.2020 02:00:00 -4,3 -7,9 4 2 ENE 0,0
15.01.2020 01:00:00 -4,2 -7,6 3 2 E 0,0
15.01.2020 00:00:00 -4,3 -7,6 0 0 N 0,0
14.01.2020 23:00:00 -3,6 -7,6 0 0 N 0,0
14.01.2020 22:00:00 -3,5 -7,6 0 0 N 0,0
14.01.2020 21:00:00 -2,9 -6,9 0 0 N 0,0
14.01.2020 20:00:00 -2,5 -6,9 2 1 S 0,0
14.01.2020 19:00:00 -2,5 -6,5 3 2 ESE 0,0
14.01.2020 18:00:00 -1,1 -6,1 3 2 S 0,0
14.01.2020 17:00:00 -0,1 -5,3 2 1 E 0,0
14.01.2020 16:00:00 3,6 -5,4 4 2 E 0,0
14.01.2020 15:00:00 4,2 -7,0 5 3 NE 0,0
14.01.2020 14:00:00 4,6 -6,9 2 1 E 0,0
14.01.2020 13:00:00 2,6 -7,6 2 1 NE 0,0
14.01.2020 12:00:00 0,2 -8,8 2 1 ESE 0,0
14.01.2020 11:00:00 -4,2 -10,6 2 1 ENE 0,0
14.01.2020 10:00:00 -6,1 -10,7 0 0 N 0,0
14.01.2020 09:00:00 -6,2 -10,6 3 2 SE 0,0
14.01.2020 08:00:00 -6,4 -10,8 0 0 N 0,0
14.01.2020 07:00:00 -6,6 -10,8 2 1 E 0,0
14.01.2020 06:00:00 -6,0 -10,4 3 2 ENE 0,0
14.01.2020 05:00:00 -5,5 -10,3 0 0 N 0,0
14.01.2020 04:00:00 -5,4 -10,0 3 1 N 0,0
14.01.2020 03:00:00 -5,5 -10,1 2 1 W 0,0
14.01.2020 02:00:00 -5,5 -9,6 0 0 N 0,0
14.01.2020 01:00:00 -4,8 -9,6 0 0 N 0,0
14.01.2020 00:00:00 -4,6 -9,2 2 1 S 0,0
13.01.2020 23:00:00 -4,3 -9,0 2 1 W 0,0
13.01.2020 22:00:00 -3,6 -8,5 2 1 ESE 0,0
13.01.2020 21:00:00 -3,3 -8,4 0 0 N 0,0
13.01.2020 20:00:00 -2,7 -8,2 0 0 N 0,0
13.01.2020 19:00:00 -1,7 -8,0 3 2 E 0,0
13.01.2020 18:00:00 -0,9 -7,9 2 1 E 0,0
13.01.2020 17:00:00 0,5 -7,7 4 2 E 0,0
13.01.2020 16:00:00 4,1 -8,3 3 1 NNE 0,0
13.01.2020 15:00:00 6,2 -9,3 3 2 NNE 0,0
13.01.2020 14:00:00 7,3 -9,6 2 1 NE 0,0
13.01.2020 13:00:00 5,7 -7,9 2 1 SSW 0,0
13.01.2020 12:00:00 2,5 -8,3 0 0 N 0,0
13.01.2020 11:00:00 -1,2 -9,1 0 0 N 0,0
13.01.2020 10:00:00 -2,5 -9,6 2 1 ESE 0,0
13.01.2020 09:00:00 -2,9 -9,8 4 2 NE 0,0
13.01.2020 08:00:00 -3,1 -10,2 3 1 ENE 0,0
13.01.2020 07:00:00 -2,9 -10,5 0 0 N 0,0
13.01.2020 06:00:00 -2,9 -10,2 0 0 N 0,0
13.01.2020 05:00:00 -2,2 -9,8 6 4 NE 0,0
13.01.2020 04:00:00 -2,5 -10,5 0 0 N 0,0
13.01.2020 03:00:00 -2,8 -10,4 3 2 S 0,0
13.01.2020 02:00:00 -2,5 -10,5 0 0 N 0,0
13.01.2020 01:00:00 -3,2 -10,5 3 1 SW 0,0
13.01.2020 00:00:00 -3,2 -10,1 2 1 WNW 0,0
12.01.2020 23:00:00 -3,2 -9,7 0 0 N 0,0
12.01.2020 22:00:00 -3,0 -9,5 2 1 E 0,0
12.01.2020 21:00:00 -2,9 -9,6 2 1 SSE 0,0
12.01.2020 20:00:00 -2,5 -9,6 3 2 SSW 0,0
12.01.2020 19:00:00 -2,0 -9,8 0 0 N 0,0
12.01.2020 18:00:00 -1,1 -10,0 2 1 NE 0,0
12.01.2020 17:00:00 0,2 -9,3 3 2 E 0,0
12.01.2020 16:00:00 4,5 -9,7 0 0 N 0,0
12.01.2020 15:00:00 5,5 -9,5 0 0 N 0,0
12.01.2020 14:00:00 4,5 -11,2 0 0 N 0,0

tt = Température de l'air
td = dewpoint
ff = Vitesse du vent
dd = Direction du vent
rr = Quantités de précipitations

stations d'obs. à proximité